Time;durP1;ratioP1;P1;durP2;ratioP2;P2;SDS_P1;SDS_P2;PMS_P1;PMS_P2;Temp;Humidity;BMP_temperature;BMP_pressure;BME280_temperature;BME280_humidity;BME280_pressure;Samples;Min_cycle;Max_cycle;Signal;HPM_P1;HPM_P2
2024/01/16 00:01:01;;;;;;;4.80;2.05;;;1.60;1.00;;;;;;5108670;28;20326;-77
2024/01/16 00:03:28;;;;;;;2.30;1.58;;;1.60;1.00;;;;;;5110157;28;20281;-76
2024/01/16 00:05:55;;;;;;;2.55;1.80;;;1.40;1.00;;;;;;5109900;27;20300;-77
2024/01/16 00:08:23;;;;;;;3.53;1.90;;;1.40;1.00;;;;;;5106982;28;20265;-77
2024/01/16 00:10:51;;;;;;;3.40;1.80;;;1.30;1.00;;;;;;5097498;28;20320;-77
2024/01/16 00:13:18;;;;;;;2.05;1.45;;;1.30;1.00;;;;;;5095144;27;20302;-76
2024/01/16 00:15:45;;;;;;;5.22;1.50;;;1.30;1.00;;;;;;5103844;28;20239;-77
2024/01/16 00:18:12;;;;;;;2.80;1.42;;;1.20;1.00;;;;;;5109973;28;20231;-76
2024/01/16 00:20:39;;;;;;;4.85;2.10;;;1.20;1.00;;;;;;5108153;28;20263;-77
2024/01/16 00:23:08;;;;;;;2.45;1.67;;;1.30;1.00;;;;;;5109361;27;20796;-78
2024/01/16 00:25:36;;;;;;;2.97;1.70;;;1.30;1.00;;;;;;5106177;27;20235;-77
2024/01/16 00:28:03;;;;;;;2.45;1.92;;;1.30;1.00;;;;;;5110154;28;20326;-76
2024/01/16 00:30:31;;;;;;;6.15;2.63;;;1.30;1.00;;;;;;5109681;28;20235;-77
2024/01/16 00:32:59;;;;;;;3.83;1.85;;;1.10;1.00;;;;;;5109388;28;20235;-76
2024/01/16 00:35:26;;;;;;;2.72;1.80;;;1.10;1.00;;;;;;5107318;28;21084;-76
2024/01/16 00:37:53;;;;;;;2.80;1.63;;;1.10;1.00;;;;;;5106641;28;20322;-76
2024/01/16 00:40:20;;;;;;;4.38;2.05;;;1.10;1.00;;;;;;5106815;27;20313;-74
2024/01/16 00:42:48;;;;;;;4.72;1.80;;;1.00;1.00;;;;;;5108872;27;20772;-74
2024/01/16 00:45:16;;;;;;;4.15;2.05;;;1.00;1.00;;;;;;5107492;28;20316;-76
2024/01/16 00:47:44;;;;;;;6.30;2.00;;;1.00;1.00;;;;;;5105765;28;20247;-77
2024/01/16 00:50:11;;;;;;;3.25;2.00;;;1.00;1.00;;;;;;5108218;28;21610;-76
2024/01/16 00:52:38;;;;;;;2.72;2.22;;;1.00;1.00;;;;;;5107745;27;20639;-74
2024/01/16 00:55:06;;;;;;;3.78;2.17;;;0.90;1.00;;;;;;5108646;28;20235;-74
2024/01/16 00:57:34;;;;;;;3.28;2.42;;;1.00;1.00;;;;;;5107080;28;20231;-77
2024/01/16 01:00:06;;;;;;;3.38;2.00;;;1.00;1.00;;;;;;5103183;28;20237;-74
2024/01/16 01:02:34;;;;;;;3.00;2.70;;;0.90;1.00;;;;;;5104821;28;20294;-76
2024/01/16 01:05:01;;;;;;;3.80;2.00;;;0.90;1.00;;;;;;5102761;28;20801;-74
2024/01/16 01:07:28;;;;;;;4.10;1.90;;;0.80;1.00;;;;;;5107794;28;21046;-75
2024/01/16 01:09:56;;;;;;;2.20;1.90;;;0.70;1.00;;;;;;5104892;28;20285;-75
2024/01/16 01:12:23;;;;;;;6.35;1.90;;;0.70;1.00;;;;;;5105927;28;20883;-75
2024/01/16 01:14:50;;;;;;;3.83;2.15;;;0.70;1.00;;;;;;5107884;28;20235;-75
2024/01/16 01:17:18;;;;;;;3.60;1.60;;;0.60;1.00;;;;;;5081314;28;21559;-74
2024/01/16 01:19:46;;;;;;;3.17;1.45;;;0.60;1.00;;;;;;5105591;28;20296;-76
2024/01/16 01:22:13;;;;;;;5.93;1.70;;;0.50;1.00;;;;;;5110505;27;20958;-74
2024/01/16 01:24:40;;;;;;;2.35;1.38;;;0.50;1.00;;;;;;5106109;27;20296;-73
2024/01/16 01:27:07;;;;;;;2.75;1.40;;;0.50;1.00;;;;;;5108232;28;20228;-74
2024/01/16 01:29:34;;;;;;;2.00;1.30;;;0.50;1.00;;;;;;5107773;28;20336;-74
2024/01/16 01:32:01;;;;;;;2.35;1.48;;;0.50;1.00;;;;;;5108946;28;20258;-72
2024/01/16 01:34:29;;;;;;;3.47;1.30;;;0.50;1.00;;;;;;5092256;28;20239;-73
2024/01/16 01:36:57;;;;;;;2.47;1.60;;;0.50;1.00;;;;;;5088521;28;20239;-74
2024/01/16 01:39:24;;;;;;;3.25;1.42;;;0.50;1.00;;;;;;5101272;28;20285;-77
2024/01/16 01:41:51;;;;;;;3.97;1.80;;;0.50;1.00;;;;;;5104012;28;20322;-78
2024/01/16 01:44:18;;;;;;;1.83;1.35;;;0.50;1.00;;;;;;5108801;28;20625;-76
2024/01/16 01:46:46;;;;;;;2.58;2.10;;;0.50;1.00;;;;;;5106560;28;20297;-77
2024/01/16 01:49:15;;;;;;;3.80;2.65;;;0.50;1.00;;;;;;5103558;28;21171;-76
2024/01/16 01:51:45;;;;;;;3.35;1.80;;;0.50;1.00;;;;;;5106288;28;20666;-76
2024/01/16 01:54:13;;;;;;;4.68;2.03;;;0.50;1.00;;;;;;5107326;28;20381;-77
2024/01/16 01:56:43;;;;;;;3.67;1.92;;;0.50;1.00;;;;;;5104323;28;20242;-76
2024/01/16 01:59:10;;;;;;;2.67;1.90;;;0.40;1.00;;;;;;5108435;27;20240;-75
2024/01/16 02:01:37;;;;;;;1.90;1.65;;;0.20;1.00;;;;;;5104650;28;20235;-77
2024/01/16 02:04:05;;;;;;;4.30;1.80;;;0.20;1.00;;;;;;5106302;28;20338;-77
2024/01/16 02:06:32;;;;;;;2.33;2.13;;;0.20;1.00;;;;;;5107792;28;20324;-79
2024/01/16 02:09:06;;;;;;;2.63;2.03;;;0.30;1.00;;;;;;5108612;28;21047;-75
2024/01/16 02:11:34;;;;;;;4.95;1.98;;;0.20;1.00;;;;;;5103768;28;20237;-76
2024/01/16 02:14:01;;;;;;;2.05;1.90;;;0.20;1.00;;;;;;5106396;28;20590;-75
2024/01/16 02:16:35;;;;;;;2.17;1.88;;;0.30;1.00;;;;;;5105318;27;20292;-76
2024/01/16 02:19:03;;;;;;;2.67;1.52;;;0.30;1.00;;;;;;5106225;28;20258;-77
2024/01/16 02:21:35;;;;;;;3.75;2.65;;;0.30;1.00;;;;;;5106026;28;20240;-77
2024/01/16 02:24:05;;;;;;;3.42;1.92;;;0.30;1.00;;;;;;5072522;28;20236;-77
2024/01/16 02:26:32;;;;;;;2.60;2.40;;;0.30;1.00;;;;;;5082802;28;20696;-77
2024/01/16 02:29:02;;;;;;;2.15;1.95;;;0.20;1.00;;;;;;5084862;28;20229;-76
2024/01/16 02:31:29;;;;;;;4.55;1.95;;;0.10;1.00;;;;;;5086089;28;20240;-76
2024/01/16 02:33:56;;;;;;;2.00;1.48;;;0.10;1.00;;;;;;5086309;28;20236;-77
2024/01/16 02:36:23;;;;;;;3.58;1.58;;;0.10;1.00;;;;;;5085360;28;21149;-76
2024/01/16 02:38:50;;;;;;;5.30;2.40;;;0.10;1.00;;;;;;5087556;28;20247;-77
2024/01/16 02:41:19;;;;;;;5.30;1.90;;;0.10;1.00;;;;;;5082672;28;20320;-76
2024/01/16 02:43:46;;;;;;;2.33;1.88;;;0.10;1.00;;;;;;5085166;28;20264;-76
2024/01/16 02:46:13;;;;;;;3.95;1.83;;;0.10;1.00;;;;;;5085988;28;20366;-77
2024/01/16 02:48:42;;;;;;;3.50;1.95;;;0.10;1.00;;;;;;5082787;28;20240;-76
2024/01/16 02:51:09;;;;;;;2.88;2.30;;;0.10;1.00;;;;;;5083545;28;20239;-75
2024/01/16 02:53:36;;;;;;;4.85;2.40;;;0.00;1.00;;;;;;5086305;28;20306;-77
2024/01/16 02:56:06;;;;;;;3.65;2.70;;;-0.10;1.00;;;;;;5084590;28;20239;-75
2024/01/16 02:58:35;;;;;;;5.43;2.60;;;-0.20;1.00;;;;;;5084215;28;20232;-75
2024/01/16 03:01:02;;;;;;;6.50;2.90;;;-0.30;1.00;;;;;;5085642;28;20248;-78
2024/01/16 03:03:29;;;;;;;3.90;2.67;;;-0.40;1.00;;;;;;5078780;28;20342;-75
2024/01/16 03:05:56;;;;;;;4.90;2.42;;;-0.50;1.00;;;;;;5083549;28;20240;-78
2024/01/16 03:08:23;;;;;;;3.70;2.55;;;-0.50;1.00;;;;;;5085489;28;20319;-76
2024/01/16 03:10:50;;;;;;;4.68;3.13;;;-0.60;1.00;;;;;;5081958;28;20270;-75
2024/01/16 03:13:17;;;;;;;3.05;2.08;;;-0.70;1.00;;;;;;5086354;28;20235;-76
2024/01/16 03:15:46;;;;;;;3.78;3.05;;;-0.60;1.00;;;;;;5087736;28;20274;-76
2024/01/16 03:18:13;;;;;;;3.22;1.40;;;-0.70;1.00;;;;;;5085639;28;20228;-76
2024/01/16 03:20:39;;;;;;;3.88;2.30;;;-0.70;1.00;;;;;;5085671;28;20727;-76
2024/01/16 03:23:06;;;;;;;4.55;3.28;;;-0.70;1.00;;;;;;5101453;28;20301;-77
2024/01/16 03:25:38;;;;;;;3.45;2.90;;;-0.70;1.00;;;;;;5109932;28;20369;-77
2024/01/16 03:28:45;;;;;;;4.70;3.55;;;-0.70;1.00;;;;;;5109503;28;20234;-75
2024/01/16 03:31:15;;;;;;;7.30;3.30;;;-0.70;1.00;;;;;;5106976;27;20231;-76
2024/01/16 03:33:43;;;;;;;9.48;2.70;;;-0.70;1.00;;;;;;5106610;27;20240;-76
2024/01/16 03:36:11;;;;;;;10.10;6.40;;;-0.70;1.00;;;;;;5108519;28;20239;-76
2024/01/16 03:38:39;;;;;;;3.85;2.55;;;-0.70;1.00;;;;;;5088110;28;20235;-76
2024/01/16 03:41:07;;;;;;;5.10;3.42;;;-0.70;1.00;;;;;;5107290;28;20346;-78
2024/01/16 03:43:35;;;;;;;4.05;2.55;;;-0.70;1.00;;;;;;5108447;28;20312;-76
2024/01/16 03:46:02;;;;;;;5.60;2.70;;;-0.60;1.00;;;;;;5106863;28;21040;-76
2024/01/16 03:48:30;;;;;;;3.00;2.60;;;-0.60;1.00;;;;;;5107842;27;20235;-75
2024/01/16 03:50:59;;;;;;;4.05;3.08;;;-0.50;1.00;;;;;;5106884;28;20272;-75
2024/01/16 03:53:25;;;;;;;5.57;2.90;;;-0.40;1.00;;;;;;5110166;28;20238;-75
2024/01/16 03:55:53;;;;;;;6.95;6.03;;;-0.50;1.00;;;;;;5106108;28;20308;-76
2024/01/16 03:58:20;;;;;;;4.78;3.10;;;-0.50;1.00;;;;;;5106296;27;20346;-76
2024/01/16 04:00:50;;;;;;;4.05;3.10;;;-0.40;1.00;;;;;;5104860;28;20711;-76
2024/01/16 04:03:17;;;;;;;7.53;3.70;;;-0.40;1.00;;;;;;5105301;28;20239;-75
2024/01/16 04:05:45;;;;;;;4.95;3.10;;;-0.30;1.00;;;;;;5105354;27;20305;-75
2024/01/16 04:08:13;;;;;;;2.97;2.10;;;-0.20;1.00;;;;;;5109818;28;20263;-76
2024/01/16 04:10:41;;;;;;;2.75;2.50;;;-0.10;1.00;;;;;;5106367;28;20322;-76
2024/01/16 04:13:09;;;;;;;5.65;3.35;;;-0.10;1.00;;;;;;5110432;27;20243;-77
2024/01/16 04:15:39;;;;;;;4.75;3.58;;;0.00;1.00;;;;;;5107606;27;20270;-77
2024/01/16 04:18:07;;;;;;;4.28;3.40;;;0.00;1.00;;;;;;5099994;27;20380;-75
2024/01/16 04:20:35;;;;;;;8.50;4.65;;;0.10;1.00;;;;;;5112069;28;20302;-77
2024/01/16 04:23:06;;;;;;;5.72;3.25;;;-0.10;1.00;;;;;;5110163;27;20267;-76
2024/01/16 04:25:35;;;;;;;5.50;3.05;;;0.00;1.00;;;;;;5108272;27;20239;-76
2024/01/16 04:28:02;;;;;;;4.55;3.00;;;0.00;1.00;;;;;;5105702;27;20235;-76
2024/01/16 04:30:29;;;;;;;5.80;3.58;;;-0.10;1.00;;;;;;5109736;27;20349;-76
2024/01/16 04:32:57;;;;;;;4.32;2.95;;;-0.10;1.00;;;;;;5107544;28;20239;-76
2024/01/16 04:35:24;;;;;;;6.95;4.68;;;-0.10;1.00;;;;;;5112268;27;20424;-75
2024/01/16 04:37:51;;;;;;;4.60;3.78;;;-0.10;1.00;;;;;;5108479;27;20884;-77
2024/01/16 04:40:19;;;;;;;7.10;5.20;;;-0.10;1.00;;;;;;5103643;28;20227;-77
2024/01/16 04:42:46;;;;;;;5.95;3.58;;;-0.10;1.00;;;;;;5100791;28;20255;-75
2024/01/16 04:45:14;;;;;;;6.15;3.65;;;0.00;1.00;;;;;;5107505;28;20306;-75
2024/01/16 04:47:40;;;;;;;10.50;4.80;;;0.00;1.00;;;;;;5106945;28;20243;-76
2024/01/16 04:50:08;;;;;;;8.70;5.38;;;0.00;1.00;;;;;;5107873;28;20235;-77
2024/01/16 04:52:35;;;;;;;10.27;5.82;;;0.00;1.00;;;;;;5109346;27;20938;-77
2024/01/16 04:55:05;;;;;;;6.40;4.95;;;0.00;1.00;;;;;;5109396;28;20228;-75
2024/01/16 04:57:33;;;;;;;14.60;10.45;;;0.00;1.00;;;;;;5106291;28;20331;-76
2024/01/16 05:00:00;;;;;;;6.45;4.05;;;0.10;1.00;;;;;;5106636;28;20346;-76
2024/01/16 05:02:27;;;;;;;6.63;3.25;;;0.00;1.00;;;;;;5107285;27;20259;-76
2024/01/16 05:04:56;;;;;;;5.63;3.42;;;0.00;1.00;;;;;;5104195;27;20235;-75
2024/01/16 05:07:24;;;;;;;7.57;4.20;;;-0.10;1.00;;;;;;5109038;27;20315;-76
2024/01/16 05:09:51;;;;;;;4.63;3.28;;;-0.20;1.00;;;;;;5108857;27;20934;-76
2024/01/16 05:12:19;;;;;;;5.22;4.72;;;-0.20;1.00;;;;;;5101451;27;20239;-76
2024/01/16 05:14:47;;;;;;;5.57;3.33;;;-0.20;1.00;;;;;;5103825;27;20321;-75
2024/01/16 05:17:14;;;;;;;3.55;3.25;;;-0.20;1.00;;;;;;5105592;27;20454;-76
2024/01/16 05:19:42;;;;;;;5.80;5.10;;;-0.20;1.00;;;;;;5104888;27;20661;-76
2024/01/16 05:22:10;;;;;;;4.05;3.25;;;-0.30;1.00;;;;;;5106693;27;21046;-77
2024/01/16 05:24:37;;;;;;;5.22;3.13;;;-0.40;1.00;;;;;;5104014;27;20242;-77
2024/01/16 05:27:05;;;;;;;4.10;3.35;;;-0.40;1.00;;;;;;5098724;28;20755;-75
2024/01/16 05:29:34;;;;;;;4.25;3.80;;;-0.40;1.00;;;;;;5107484;28;20255;-76
2024/01/16 05:32:03;;;;;;;6.18;3.22;;;-0.40;1.00;;;;;;5105481;28;22989;-76
2024/01/16 05:34:30;;;;;;;5.88;3.80;;;-0.40;1.00;;;;;;5104367;27;20236;-75
2024/01/16 05:36:57;;;;;;;6.22;3.97;;;-0.50;1.00;;;;;;5106539;28;20243;-76
2024/01/16 05:39:27;;;;;;;8.57;6.60;;;-0.50;1.00;;;;;;5108056;27;20239;-78
2024/01/16 05:41:54;;;;;;;5.88;4.78;;;-0.40;1.00;;;;;;5106780;28;20235;-77
2024/01/16 05:44:21;;;;;;;4.97;3.70;;;-0.40;1.00;;;;;;5115449;27;20238;-77
2024/01/16 05:46:48;;;;;;;6.20;5.60;;;-0.40;1.00;;;;;;5111811;28;20223;-77
2024/01/16 05:49:17;;;;;;;8.65;5.75;;;-0.30;1.00;;;;;;5116385;28;20257;-77
2024/01/16 05:51:44;;;;;;;6.75;5.60;;;-0.20;1.00;;;;;;5105714;27;20311;-77
2024/01/16 05:54:11;;;;;;;8.68;5.63;;;-0.10;1.00;;;;;;5107660;27;20243;-76
2024/01/16 05:56:39;;;;;;;9.32;5.75;;;-0.10;1.00;;;;;;5112894;28;20236;-79
2024/01/16 05:59:07;;;;;;;5.22;3.95;;;-0.10;1.00;;;;;;5108471;27;20239;-80
2024/01/16 06:01:34;;;;;;;7.90;5.22;;;-0.10;1.00;;;;;;5112567;27;20239;-76
2024/01/16 06:04:04;;;;;;;4.93;4.20;;;-0.20;1.00;;;;;;5108753;27;20495;-78
2024/01/16 06:06:34;;;;;;;8.20;5.28;;;-0.20;1.00;;;;;;5112204;27;20227;-78
2024/01/16 06:09:05;;;;;;;8.38;5.53;;;-0.30;1.00;;;;;;5109635;27;20215;-78
2024/01/16 06:11:34;;;;;;;6.03;4.50;;;-0.40;1.00;;;;;;5106932;27;20965;-79
2024/01/16 06:14:01;;;;;;;7.40;5.38;;;-0.50;1.00;;;;;;5109410;28;20262;-77
2024/01/16 06:16:29;;;;;;;6.97;5.15;;;-0.50;1.00;;;;;;5114061;27;20277;-77
2024/01/16 06:18:59;;;;;;;5.18;3.90;;;-0.50;1.00;;;;;;5090098;28;20231;-78
2024/01/16 06:21:26;;;;;;;7.38;4.68;;;-0.50;1.00;;;;;;5106945;28;21117;-79
2024/01/16 06:23:55;;;;;;;7.25;3.63;;;-0.50;1.00;;;;;;5106713;27;20236;-78
2024/01/16 06:26:23;;;;;;;6.60;4.57;;;-0.50;1.00;;;;;;5111056;27;20267;-78
2024/01/16 06:28:50;;;;;;;8.07;4.43;;;-0.50;1.00;;;;;;5108982;28;20235;-78
2024/01/16 06:31:19;;;;;;;5.97;4.03;;;-0.50;1.00;;;;;;5113679;28;20239;-77
2024/01/16 06:33:46;;;;;;;7.57;5.18;;;-0.60;1.00;;;;;;5109310;27;20261;-78
2024/01/16 06:36:14;;;;;;;7.50;5.95;;;-0.60;1.00;;;;;;5111034;27;20243;-77
2024/01/16 06:38:47;;;;;;;7.10;5.70;;;-0.60;1.00;;;;;;5106448;28;20239;-79
2024/01/16 06:41:18;;;;;;;14.27;5.40;;;-0.70;1.00;;;;;;5109448;28;20233;-78
2024/01/16 06:43:46;;;;;;;6.35;4.50;;;-0.70;1.00;;;;;;5108844;28;20703;-78
2024/01/16 06:46:15;;;;;;;7.10;5.80;;;-0.80;1.00;;;;;;5110757;28;20282;-77
2024/01/16 06:48:43;;;;;;;6.72;4.90;;;-0.80;1.00;;;;;;5109821;27;20240;-79
2024/01/16 06:51:14;;;;;;;6.30;5.07;;;-0.70;1.00;;;;;;5116418;27;20239;-77
2024/01/16 06:53:42;;;;;;;8.50;7.00;;;-0.60;1.00;;;;;;5106526;28;20247;-80
2024/01/16 06:56:09;;;;;;;11.23;7.45;;;-0.60;1.00;;;;;;5111348;28;20335;-74
2024/01/16 06:58:39;;;;;;;12.85;8.25;;;-0.50;1.00;;;;;;5106623;28;20239;-75
2024/01/16 07:01:08;;;;;;;9.68;6.68;;;-0.40;1.00;;;;;;5105052;28;20235;-76
2024/01/16 07:03:35;;;;;;;8.55;6.60;;;-0.30;1.00;;;;;;5109869;27;21027;-74
2024/01/16 07:06:03;;;;;;;17.15;11.40;;;-0.20;1.00;;;;;;5106720;28;20238;-76
2024/01/16 07:08:33;;;;;;;10.82;6.57;;;-0.20;1.00;;;;;;5108052;27;20231;-75
2024/01/16 07:11:00;;;;;;;10.57;5.22;;;-0.10;1.00;;;;;;5104482;28;20384;-76
2024/01/16 07:13:27;;;;;;;11.50;8.30;;;-0.10;1.00;;;;;;5108574;28;20254;-77
2024/01/16 07:15:56;;;;;;;7.75;6.10;;;-0.10;1.00;;;;;;5104051;28;20239;-73
2024/01/16 07:18:24;;;;;;;10.73;5.50;;;0.00;1.00;;;;;;5109653;28;20247;-71
2024/01/16 07:20:51;;;;;;;7.68;6.38;;;0.10;1.00;;;;;;5088007;28;20240;-71
2024/01/16 07:23:18;;;;;;;8.85;5.60;;;0.10;1.00;;;;;;5107499;27;20259;-80
2024/01/16 07:25:46;;;;;;;12.10;5.72;;;0.10;1.00;;;;;;5082431;28;20339;-74
2024/01/16 07:28:14;;;;;;;5.80;4.78;;;0.20;1.00;;;;;;5096259;28;20239;-73
2024/01/16 07:30:41;;;;;;;7.55;5.53;;;0.30;1.00;;;;;;5104530;27;20239;-73
2024/01/16 07:33:11;;;;;;;5.75;3.85;;;0.20;1.00;;;;;;5109108;28;20239;-74
2024/01/16 07:35:40;;;;;;;7.15;4.47;;;0.20;1.00;;;;;;5109186;27;20285;-75
2024/01/16 07:38:08;;;;;;;7.70;4.90;;;0.10;1.00;;;;;;5107863;28;20245;-74
2024/01/16 07:40:35;;;;;;;8.70;4.88;;;0.10;1.00;;;;;;5104500;28;20242;-74
2024/01/16 07:43:02;;;;;;;7.75;4.20;;;0.10;1.00;;;;;;5107519;27;20235;-74
2024/01/16 07:45:29;;;;;;;11.70;9.05;;;0.10;1.00;;;;;;5107430;28;20239;-74
2024/01/16 07:47:57;;;;;;;6.55;5.88;;;0.20;1.00;;;;;;5107662;27;20332;-74
2024/01/16 07:50:26;;;;;;;8.70;5.97;;;0.30;1.00;;;;;;5104874;27;20227;-74
2024/01/16 07:52:53;;;;;;;9.95;6.57;;;0.30;1.00;;;;;;5104442;28;20240;-74
2024/01/16 07:55:20;;;;;;;10.80;7.97;;;0.40;1.00;;;;;;5108439;27;20672;-74
2024/01/16 07:57:47;;;;;;;12.57;8.32;;;0.40;1.00;;;;;;5108749;27;20232;-73
2024/01/16 08:00:15;;;;;;;9.63;7.82;;;0.50;1.00;;;;;;5108280;28;20228;-74
2024/01/16 08:02:42;;;;;;;15.15;13.63;;;0.60;1.00;;;;;;5105291;28;20236;-77
2024/01/16 08:05:10;;;;;;;11.23;8.90;;;0.60;1.00;;;;;;5107443;27;20323;-73
2024/01/16 08:07:39;;;;;;;14.15;9.45;;;0.70;1.00;;;;;;5102549;28;20251;-73
2024/01/16 08:10:07;;;;;;;13.65;9.65;;;0.70;1.00;;;;;;5107349;28;20227;-75
2024/01/16 08:12:34;;;;;;;11.10;9.65;;;0.70;1.00;;;;;;5105397;28;20231;-76
2024/01/16 08:15:01;;;;;;;11.40;10.30;;;0.70;1.00;;;;;;5109102;28;20255;-72
2024/01/16 08:17:27;;;;;;;14.20;10.57;;;0.80;1.00;;;;;;5107971;28;20223;-71
2024/01/16 08:19:55;;;;;;;17.73;9.90;;;0.80;1.00;;;;;;5108649;28;20293;-72
2024/01/16 08:22:23;;;;;;;11.07;9.40;;;0.80;1.00;;;;;;5105831;28;20908;-72
2024/01/16 08:24:52;;;;;;;10.35;8.55;;;0.90;1.00;;;;;;5108784;28;21239;-74
2024/01/16 08:27:20;;;;;;;8.38;7.10;;;0.90;1.00;;;;;;5107053;28;20322;-74
2024/01/16 08:29:48;;;;;;;10.55;7.18;;;0.90;1.00;;;;;;5108077;27;20383;-73
2024/01/16 08:32:15;;;;;;;8.55;6.43;;;0.90;1.00;;;;;;5104237;28;20271;-73
2024/01/16 08:34:42;;;;;;;8.20;6.45;;;0.90;1.00;;;;;;5107583;27;20245;-74
2024/01/16 08:37:09;;;;;;;7.43;5.80;;;0.80;1.00;;;;;;5107579;27;20227;-73
2024/01/16 08:39:36;;;;;;;10.90;7.32;;;0.90;1.00;;;;;;5103259;28;20242;-71
2024/01/16 08:42:05;;;;;;;9.88;6.63;;;1.00;1.00;;;;;;5106643;27;20301;-74
2024/01/16 08:44:32;;;;;;;10.70;7.85;;;1.00;1.00;;;;;;5107348;27;20337;-76
2024/01/16 08:47:02;;;;;;;9.60;7.22;;;1.10;1.00;;;;;;5090561;27;20232;-74
2024/01/16 08:49:29;;;;;;;8.18;6.82;;;1.10;1.00;;;;;;5104545;27;21117;-75
2024/01/16 08:51:57;;;;;;;9.45;6.50;;;1.20;1.00;;;;;;5101057;28;20245;-74
2024/01/16 08:54:25;;;;;;;8.02;6.60;;;1.40;1.00;;;;;;5105934;28;20263;-71
2024/01/16 08:56:54;;;;;;;6.57;5.97;;;1.40;1.00;;;;;;5103618;27;20788;-71
2024/01/16 08:59:22;;;;;;;9.93;6.80;;;1.20;1.00;;;;;;5104408;27;20290;-75
2024/01/16 09:01:51;;;;;;;9.90;6.40;;;1.20;1.00;;;;;;5105733;28;20267;-74
2024/01/16 09:04:19;;;;;;;8.25;6.40;;;1.20;1.00;;;;;;5106947;28;20259;-72
2024/01/16 09:06:47;;;;;;;9.20;6.50;;;1.20;1.00;;;;;;5104399;27;20282;-72
2024/01/16 09:09:15;;;;;;;7.03;6.25;;;1.30;1.00;;;;;;5104150;27;20243;-74
2024/01/16 09:11:44;;;;;;;9.07;7.30;;;1.20;1.00;;;;;;5111307;27;20732;-72
2024/01/16 09:14:13;;;;;;;8.65;7.20;;;1.20;1.00;;;;;;5108355;27;20246;-74
2024/01/16 09:16:44;;;;;;;8.90;7.15;;;1.20;1.00;;;;;;5111334;27;20255;-74
2024/01/16 09:19:11;;;;;;;12.27;7.38;;;1.10;1.00;;;;;;5107816;27;20277;-74
2024/01/16 09:21:39;;;;;;;9.95;6.85;;;1.10;1.00;;;;;;5109372;28;20707;-76
2024/01/16 09:24:07;;;;;;;7.13;6.03;;;1.10;1.00;;;;;;5107024;27;20558;-76
2024/01/16 09:26:36;;;;;;;11.20;6.50;;;1.10;1.00;;;;;;5107695;27;20236;-74
2024/01/16 09:29:03;;;;;;;10.35;7.78;;;1.10;1.00;;;;;;5096026;27;20736;-75
2024/01/16 09:31:31;;;;;;;9.60;6.85;;;1.00;1.00;;;;;;5102364;27;21144;-75
2024/01/16 09:33:59;;;;;;;10.68;7.38;;;1.10;1.00;;;;;;5101063;27;20326;-72
2024/01/16 09:36:26;;;;;;;12.00;7.10;;;1.10;1.00;;;;;;5108462;28;20796;-72
2024/01/16 09:38:53;;;;;;;9.15;6.82;;;1.10;1.00;;;;;;5103042;27;21066;-71
2024/01/16 09:41:20;;;;;;;10.65;7.45;;;1.20;1.00;;;;;;5103586;27;20241;-71
2024/01/16 09:43:48;;;;;;;11.20;8.10;;;1.20;1.00;;;;;;5101928;28;20407;-73
2024/01/16 09:46:18;;;;;;;9.23;6.78;;;1.20;1.00;;;;;;5106947;27;20285;-79
2024/01/16 09:48:46;;;;;;;20.85;9.95;;;1.20;1.00;;;;;;5100461;27;20240;-74
2024/01/16 09:51:15;;;;;;;11.43;8.18;;;1.30;1.00;;;;;;5104753;27;20320;-73
2024/01/16 09:53:43;;;;;;;9.35;7.10;;;1.20;1.00;;;;;;5105314;28;20809;-73
2024/01/16 09:56:15;;;;;;;9.80;7.20;;;1.20;1.00;;;;;;5104219;27;20335;-73
2024/01/16 09:58:44;;;;;;;14.25;6.35;;;1.20;1.00;;;;;;5104351;27;20245;-73
2024/01/16 10:01:12;;;;;;;10.68;7.43;;;1.30;1.00;;;;;;5105303;27;20236;-73
2024/01/16 10:03:42;;;;;;;8.65;6.03;;;1.30;1.00;;;;;;5105070;27;20239;-75
2024/01/16 10:06:11;;;;;;;7.25;6.60;;;1.30;1.00;;;;;;5104708;28;20306;-74
2024/01/16 10:08:40;;;;;;;9.43;7.53;;;1.30;1.00;;;;;;5101033;27;20649;-74
2024/01/16 10:11:08;;;;;;;7.55;5.95;;;1.40;1.00;;;;;;5101628;27;20227;-73
2024/01/16 10:13:36;;;;;;;9.05;6.50;;;1.50;1.00;;;;;;5086217;27;20322;-73
2024/01/16 10:16:03;;;;;;;9.98;7.70;;;1.50;1.00;;;;;;5104560;27;20310;-74
2024/01/16 10:18:31;;;;;;;13.40;8.65;;;1.60;1.00;;;;;;5102402;27;20239;-74
2024/01/16 10:20:58;;;;;;;10.18;8.15;;;1.70;1.00;;;;;;5103113;28;20736;-76
2024/01/16 10:23:26;;;;;;;10.35;8.50;;;1.60;1.00;;;;;;5105656;27;20242;-74
2024/01/16 10:26:11;;;;;;;10.30;7.78;;;1.50;1.00;;;;;;5099756;27;20239;-73
2024/01/16 10:28:41;;;;;;;10.93;7.95;;;1.50;1.00;;;;;;5099707;27;20351;-75
2024/01/16 10:31:10;;;;;;;9.95;7.32;;;1.50;1.00;;;;;;5102039;28;20235;-73
2024/01/16 10:33:39;;;;;;;10.98;8.52;;;1.60;1.00;;;;;;5084598;28;20242;-75
2024/01/16 10:36:11;;;;;;;9.70;8.40;;;1.60;1.00;;;;;;5101676;27;20239;-75
2024/01/16 10:38:39;;;;;;;7.80;7.00;;;1.70;1.00;;;;;;5102257;27;20293;-72
2024/01/16 10:41:18;;;;;;;9.98;8.90;;;1.70;1.00;;;;;;5106102;27;20698;-73
2024/01/16 10:43:46;;;;;;;9.82;8.80;;;1.80;1.00;;;;;;5106614;27;20231;-76
2024/01/16 10:46:15;;;;;;;10.13;8.15;;;1.80;1.00;;;;;;5094156;27;21056;-72
2024/01/16 10:48:43;;;;;;;11.57;7.72;;;2.10;1.00;;;;;;5103399;27;20231;-75
2024/01/16 10:51:14;;;;;;;10.75;8.10;;;2.10;1.00;;;;;;5103121;28;20815;-74
2024/01/16 10:53:44;;;;;;;8.40;7.20;;;2.20;1.00;;;;;;5098635;28;20338;-73
2024/01/16 10:56:12;;;;;;;10.90;7.40;;;2.20;1.00;;;;;;5105490;27;20231;-73
2024/01/16 10:58:45;;;;;;;7.68;6.53;;;2.20;1.00;;;;;;5103514;28;20235;-75
2024/01/16 11:01:14;;;;;;;7.13;6.43;;;2.10;1.00;;;;;;5102826;27;20312;-73
2024/01/16 11:03:46;;;;;;;7.78;7.03;;;2.30;1.00;;;;;;5100359;27;20232;-73
2024/01/16 11:06:16;;;;;;;8.32;7.00;;;2.40;1.00;;;;;;5103073;27;20300;-73
2024/01/16 11:08:46;;;;;;;8.80;6.65;;;2.60;1.00;;;;;;5100725;27;21021;-74
2024/01/16 11:11:14;;;;;;;7.45;5.53;;;2.60;1.00;;;;;;5104170;28;20243;-71
2024/01/16 11:13:44;;;;;;;8.20;6.40;;;2.50;1.00;;;;;;5100901;27;20321;-76
2024/01/16 11:16:12;;;;;;;11.60;4.88;;;2.50;1.00;;;;;;5100677;28;20242;-72
2024/01/16 11:18:39;;;;;;;7.15;5.10;;;2.40;1.00;;;;;;5104695;27;20239;-75
2024/01/16 11:21:09;;;;;;;10.05;6.90;;;2.30;1.00;;;;;;5099873;27;20227;-74
2024/01/16 11:23:37;;;;;;;6.53;4.30;;;2.20;1.00;;;;;;5103630;27;20234;-74
2024/01/16 11:26:25;;;;;;;9.60;5.45;;;2.10;1.00;;;;;;5102161;28;20246;-75
2024/01/16 11:28:56;;;;;;;3.67;3.15;;;1.90;1.00;;;;;;5103411;27;20248;-73
2024/01/16 11:31:33;;;;;;;6.47;3.78;;;1.70;1.00;;;;;;5104098;27;21057;-71
2024/01/16 11:34:01;;;;;;;7.30;4.28;;;1.60;1.00;;;;;;5100079;27;20255;-74
2024/01/16 11:36:56;;;;;;;5.55;3.15;;;1.70;1.00;;;;;;5102381;27;20391;-76
2024/01/16 11:39:25;;;;;;;4.25;2.97;;;1.70;1.00;;;;;;5108942;27;20322;-76
2024/01/16 11:41:54;;;;;;;5.82;3.55;;;1.70;1.00;;;;;;5093404;28;20842;-76
2024/01/16 11:44:46;;;;;;;7.45;4.30;;;1.60;1.00;;;;;;5107581;27;20239;-76
2024/01/16 11:47:18;;;;;;;14.02;4.32;;;1.70;1.00;;;;;;5106100;27;20235;-80
2024/01/16 11:49:45;;;;;;;5.38;3.55;;;1.70;1.00;;;;;;5103878;27;20338;-75
2024/01/16 11:52:13;;;;;;;6.85;4.40;;;1.70;1.00;;;;;;5107335;27;20888;-77
2024/01/16 11:54:41;;;;;;;5.15;3.10;;;1.70;1.00;;;;;;5106644;27;20711;-77
2024/01/16 11:57:37;;;;;;;6.07;3.60;;;1.70;1.00;;;;;;5108675;27;21165;-77
2024/01/16 12:00:12;;;;;;;5.95;4.45;;;1.70;1.00;;;;;;5104931;27;20231;-78
2024/01/16 12:02:54;;;;;;;6.38;4.60;;;1.60;1.00;;;;;;5108840;27;20231;-74
2024/01/16 12:05:22;;;;;;;8.73;6.30;;;1.50;1.00;;;;;;5105750;27;21110;-77
2024/01/16 12:07:50;;;;;;;8.45;5.30;;;1.50;1.00;;;;;;5107461;27;20240;-77
2024/01/16 12:10:18;;;;;;;6.90;4.40;;;1.50;1.00;;;;;;5107876;27;20678;-77
2024/01/16 12:12:45;;;;;;;8.35;5.43;;;1.60;1.00;;;;;;5105837;27;20745;-78
2024/01/16 12:15:17;;;;;;;7.70;5.30;;;1.60;1.00;;;;;;5106998;27;20774;-77
2024/01/16 12:17:57;;;;;;;9.25;6.75;;;1.60;1.00;;;;;;5102989;27;20243;-76
2024/01/16 12:20:25;;;;;;;7.97;5.50;;;1.70;1.00;;;;;;5103701;27;20239;-76
2024/01/16 12:22:57;;;;;;;7.10;5.25;;;1.70;1.00;;;;;;5105316;27;20839;-75
2024/01/16 12:25:24;;;;;;;10.85;6.05;;;1.70;1.00;;;;;;5100371;27;20988;-76
2024/01/16 12:27:58;;;;;;;9.20;5.97;;;1.80;1.00;;;;;;5104539;27;20243;-76
2024/01/16 12:30:28;;;;;;;12.80;5.43;;;1.90;1.00;;;;;;5107682;27;20226;-76
2024/01/16 12:33:06;;;;;;;13.23;6.43;;;1.90;1.00;;;;;;5108047;27;20237;-80
2024/01/16 12:35:34;;;;;;;6.97;5.88;;;1.70;1.00;;;;;;5103950;27;20260;-79
2024/01/16 12:38:01;;;;;;;6.95;5.72;;;1.70;1.00;;;;;;5106081;27;20263;-79
2024/01/16 12:40:29;;;;;;;10.35;5.80;;;1.80;1.00;;;;;;5111938;27;22402;-78
2024/01/16 12:42:56;;;;;;;9.10;5.95;;;1.80;1.00;;;;;;5103855;27;20246;-76
2024/01/16 12:45:23;;;;;;;8.85;5.57;;;1.80;1.00;;;;;;5112853;27;20246;-77
2024/01/16 12:47:53;;;;;;;9.73;6.35;;;1.90;1.00;;;;;;5111187;27;20444;-76
2024/01/16 12:50:22;;;;;;;7.75;6.80;;;1.90;1.00;;;;;;5114371;27;20293;-79
2024/01/16 12:52:50;;;;;;;8.60;5.70;;;1.80;1.00;;;;;;5112181;27;20248;-77
2024/01/16 12:55:19;;;;;;;9.95;5.57;;;1.90;1.00;;;;;;5108568;27;20299;-76
2024/01/16 12:57:46;;;;;;;8.15;6.05;;;2.00;1.00;;;;;;5110940;27;20341;-78
2024/01/16 13:00:25;;;;;;;11.02;6.65;;;1.90;1.00;;;;;;5093107;28;20389;-78
2024/01/16 13:02:57;;;;;;;9.48;5.97;;;1.90;1.00;;;;;;5111163;27;20730;-79
2024/01/16 13:05:26;;;;;;;10.40;5.60;;;1.90;1.00;;;;;;5101333;27;20281;-77
2024/01/16 13:08:02;;;;;;;10.60;6.32;;;1.80;1.00;;;;;;5106775;27;20354;-78
2024/01/16 13:10:33;;;;;;;8.50;5.85;;;1.90;1.00;;;;;;5108905;27;20269;-77